Flight Track Log - Related Links

Times and Time Zones

All times are in EDT time to prevent confusion due to time zone crossing. See the WIG1043 flight status page for this flight to view local times or setup timezone preferences in your user account.

Time Position Orientation Groundspeed Altitude Reporting Facility
EDT Latitude Longitude Course Direction KTS MPH feet Rate Location/Type
Thu 07:45:03 PM 44.7439 -68.7686 226° Southwest 129 148 4,200  Level Boston Center
Thu 07:46:05 PM 44.7172 -68.7972 217° Southwest 121 139 5,900 927 Climbing Boston Center
Thu 07:47:06 PM 44.6844 -68.8350 219° Southwest 141 162 6,100 66 Climbing Boston Center
Thu 07:49:00 PM 44.6196 -69.0866 226° Southwest  Level FlightAware Approximate
Thu 07:49:08 PM 44.6236 -68.9336 229° Southwest 167 192 6,100  Level Boston Center
Thu 07:50:00 PM 44.5890 -69.1311 226° Southwest  Level FlightAware Approximate
Thu 07:50:10 PM 44.5936 -68.9833 230° Southwest 166 191 6,000  Level Boston Center
Thu 07:51:11 PM 44.5669 -69.0367 235° Southwest 166 191 6,000  Level Boston Center
Thu 07:52:12 PM 44.5361 -69.0858 229° Southwest 166 191 6,000  Level Boston Center
Thu 07:53:13 PM 44.5042 -69.1336 227° Southwest 166 191 6,000  Level Boston Center
Thu 07:54:15 PM 44.4725 -69.1819 227° Southwest 166 191 6,000  Level Boston Center
Thu 07:55:16 PM 44.4411 -69.2297 227° Southwest 166 191 6,000 -33 Level Boston Center
Thu 07:57:18 PM 44.3783 -69.3264 228° Southwest 166 191 5,900 -33 Descending Boston Center
Thu 07:58:20 PM 44.3467 -69.3747 228° Southwest 166 191 5,900  Level Boston Center
Thu 07:59:21 PM 44.3075 -69.4342 227° Southwest 167 192 5,900  Level Boston Center
Thu 08:00:22 PM 44.2758 -69.4836 228° Southwest 168 193 5,900  Level Boston Center
Thu 08:01:23 PM 44.2442 -69.5317 227° Southwest 168 193 5,900  Level Boston Center
Thu 08:02:25 PM 44.2097 -69.5778 224° Southwest 169 194 5,900  Level Boston Center
Thu 08:03:26 PM 44.1753 -69.6242 224° Southwest 169 194 5,900  Level Boston Center
Thu 08:04:27 PM 44.1400 -69.6714 224° Southwest 172 198 5,900  Level Boston Center
Thu 08:05:29 PM 44.1042 -69.7250 227° Southwest 175 201 5,900  Level Boston Center
Thu 08:06:30 PM 44.0731 -69.7775 230° Southwest 176 203 5,900  Level Boston Center
Thu 08:07:31 PM 44.0414 -69.8311 231° Southwest 177 204 5,900  Level Boston Center
Thu 08:08:33 PM 44.0092 -69.8825 229° Southwest 177 204 5,900  Level Boston Center
Thu 08:09:34 PM 43.9722 -69.9361 226° Southwest 178 205 5,900  Level Boston Center
Thu 08:10:35 PM 43.9381 -69.9864 227° Southwest 178 205 5,900  Level Boston Center
Thu 08:11:36 PM 43.9028 -70.0350 225° Southwest 178 205 5,900  Level Boston Center
Thu 08:12:37 PM 43.8667 -70.0825 225° Southwest 178 205 5,900  Level Boston Center
Thu 08:13:00 PM 43.8589 -70.0999 225° Southwest  Level Estimated
Thu 08:14:40 PM 43.7933 -70.1831 225° Southwest 178 205 5,900  Level Boston Center
Thu 08:15:41 PM 43.7617 -70.2361 230° Southwest 178 205 5,900  Level Boston Center
Thu 08:18:52 PM 43.6642 -70.4036 227° Southwest 177 204 5,900  Level Boston Center
Thu 08:19:53 PM 43.6322 -70.4564 230° Southwest 178 205 5,900  Level Boston Center
Thu 08:20:54 PM 43.5997 -70.5072 229° Southwest 178 205 5,900  Level Boston Center
Thu 08:22:56 PM 43.5289 -70.6106 227° Southwest 179 206 5,900 27 Level Boston Center
Thu 08:24:00 PM 43.5032 -70.6232 227° Southwest  Level FlightAware Approximate
Thu 08:24:35 PM 43.4667 -70.6833 220° Southwest 177 204 6,000  Level KA90
Thu 08:25:30 PM 43.4333 -70.7333 227° Southwest 176 203 6,000  Level KA90
Thu 08:26:30 PM 43.4167 -70.7833 245° Southwest 173 199 6,000  Level KA90
Thu 08:27:30 PM 43.3667 -70.8333 216° Southwest 173 199 6,000 -65 Level KA90
Thu 08:28:02 PM 43.3547 -70.8533 231° Southwest 174 200 5,900 -65 Descending Boston Center
Thu 08:29:03 PM 43.3244 -70.9036 230° Southwest 174 200 5,900  Level Boston Center
Thu 08:30:04 PM 43.2928 -70.9494 227° Southwest 169 194 5,900  Level Boston Center
Thu 08:31:06 PM 43.2575 -70.9917 221° Southwest 169 194 5,900 -244 Level Boston Center
Thu 08:32:07 PM 43.2222 -71.0433 227° Southwest 170 196 5,400 -639 Descending Boston Center
Thu 08:33:08 PM 43.1867 -71.0914 225° Southwest 178 205 4,600 -689 Descending Boston Center
Thu 08:34:09 PM 43.1561 -71.1431 231° Southwest 177 204 4,000 -295 Descending Boston Center
Thu 08:35:10 PM 43.1294 -71.1961 235° Southwest 158 182 4,000 -293 Level Boston Center
Thu 08:36:12 PM 43.0986 -71.2339 222° Southwest 153 176 3,400 -488 Descending Boston Center
Thu 08:37:13 PM 43.0731 -71.2697 226° Southwest 137 158 3,000 -344 Descending Boston Center
Thu 08:38:14 PM 43.0467 -71.3028 222° Southwest 132 152 2,700 -393 Descending Boston Center
Thu 08:39:15 PM 43.0214 -71.3342 222° Southwest 116 133 2,200 -492 Descending Boston Center
Thu 08:40:16 PM 42.9997 -71.3614 223° Southwest 111 128 1,700 -488 Descending Boston Center
Thu 08:41:18 PM 42.9772 -71.3886 222° Southwest 111 128 1,200 -585 Descending Boston Center
Thu 08:42:19 PM 42.9531 -71.4192 223° Southwest 111 128 500 -393 Descending Boston Center
Thu 08:43:20 PM 42.9358 -71.4397 221° Southwest 108 124 400 -98 Descending Boston Center
Thu 08:45:00 PM 42.9328 -71.4358 222° Southwest  Level Estimated
Thu 08:52:00 PM 42.9328 -71.4358 222° Southwest  Level Estimated
Thu 08:53:00 PM 42.9328 -71.4358 174° South  Level Estimated
Thu 08:54:00 PM 42.9328 -71.4358 222° Southwest  Level Estimated
Thu 08:55:00 PM 42.9328 -71.4358 174° South  Level Estimated
Thu 08:56:00 PM 42.9328 -71.4358 222° Southwest  Level Estimated

Login

Don't have an account? Register now (free) for customized features, flight alerts, and more!